METAR / TAF

METAR / TAF
Aktuelle Wetterdaten für Piloten (ohne Gewähr!)


Available data for LSZB from the past 2 hours
BERN/BELP
Metar
LSZB 161720Z 32004KT 9999 OVC011 05/03 Q1024 NOSIG

17:20 UTC

Wind: 320° 4kt

Visibility: 9999 m

Sky: OVC 1100 ft

Temp: 5 deg C / 41 deg F

Dewpoint: 3 deg C / 37.4 deg F

Pressure: 1024 hPa

TAF
TAF LSZB 161425Z 1615/1624 VRB03KT 9999 OVC010 PROB40 1619/1624 4500 BR BKN009

Available data for LSGS from the past 2 hours
SION (MIL/CIV/AU
Metar
LSGS 161720Z VRB02KT CAVOK 07/04 Q1022

17:20 UTC

Wind: ° 2kt

Visibility:

Sky:

Temp: 7 deg C / 44.6 deg F

Dewpoint: 4 deg C / 39.2 deg F

Pressure: 1022 hPa

TAF
TAF LSGS 161425Z 1615/1624 25005KT CAVOK

Available data for LSZG from the past 2 hours
GRENCHEN
Metar
LSZG 161720Z AUTO 06008KT 9999 OVC018 05/03 Q1025

17:20 UTC

Wind: 60° 8kt

Visibility: 9999 m

Sky: OVC 1800 ft

Temp: 5 deg C / 41 deg F

Dewpoint: 3 deg C / 37.4 deg F

Pressure: 1025 hPa

TAF
TAF AMD LSZG 161700Z 1617/1624 07005KT 7000 OVC016 PROB40 TEMPO 1620/1624 OVC012

Available data for LSMP from the past 2 hours
PAYERNE (MIL/AUT
Metar
LSMP 161720Z AUTO 04008KT 360V080 4700NDV OVC009 05/03 Q1024 RMK

Available data for LSZA from the past 2 hours
LUGANO (PVT/AUT)
Metar
LSZA 161720Z VRB02KT 9999 FEW029 OVC033 09/05 Q1027 NOSIG

17:20 UTC

Wind: ° 2kt

Visibility: 9999 m

Sky: FEW 2900 ft

Temp: 9 deg C / 48.2 deg F

Dewpoint: 5 deg C / 41 deg F

Pressure: 1027 hPa

TAF
TAF LSZA 161425Z 1615/1624 VRB03KT 9000 FEW030 OVC040

Available data for LSZS from the past 2 hours
SAMEDAN
Metar
LSZS 161720Z AUTO 21007KT 9999 BKN012 01/M01 Q1024

17:20 UTC

Wind: 210° 7kt

Visibility: 9999 m

Sky: BKN 1200 ft

Temp: 1 deg C / 33.8 deg F

Dewpoint: -1 deg C / 30.2 deg F

Pressure: 1024 hPa

TAF
TAF LSZS 161425Z 1615/1624 23007KT CAVOK TX07/1615Z PROB40 1616/1624 4500 BR BKN010